EZY6436 EDDH-EGKK
Flight info
| Callsign | EZY6436 |
|---|---|
| Flight time | 1h 19m |
| Altitude | 34000 |
| Route | WSN N125 ITMIZ DCT VALKO DCT GALSO Q63 ARREK Y4 TEBRA |
| Aircraft | A20N/M-SDE3J1FGHIRWY/LB1D1 |
Departure
| Time | 2026-04-25 14:42 |
|---|---|
| Airport | Hamburg Helmut Schmidt Airport (EDDH) |
Arrival
| Time | 2026-04-25 16:01 |
|---|---|
| Airport | London Gatwick Airport (EGKK) |
| Time | Latitude | Longitude | Altitude | Speed | Heading |
|---|---|---|---|---|---|
| 2026-04-25 14:20 | 53.63055 | 10.00404 | 68 ft | 0 kts | 86° |
| 2026-04-25 14:34 | 53.63053 | 10.00371 | 68 ft | 4 kts | 83° |
| 2026-04-25 14:34 | 53.63050 | 10.00326 | 68 ft | 4 kts | 96° |
| 2026-04-25 14:35 | 53.63057 | 10.00290 | 68 ft | 4 kts | 123° |
| 2026-04-25 14:35 | 53.63076 | 10.00264 | 68 ft | 4 kts | 168° |
| 2026-04-25 14:35 | 53.63097 | 10.00259 | 68 ft | 0 kts | 172° |
| 2026-04-25 14:38 | 53.63094 | 10.00259 | 68 ft | 1 kts | 172° |
| 2026-04-25 14:38 | 53.63081 | 10.00261 | 68 ft | 2 kts | 178° |
| 2026-04-25 14:38 | 53.63060 | 10.00258 | 68 ft | 4 kts | 184° |
| 2026-04-25 14:38 | 53.63024 | 10.00237 | 68 ft | 8 kts | 215° |
| 2026-04-25 14:39 | 53.62980 | 10.00153 | 68 ft | 10 kts | 230° |
| 2026-04-25 14:39 | 53.62942 | 10.00081 | 68 ft | 7 kts | 230° |
| 2026-04-25 14:39 | 53.62905 | 10.00041 | 68 ft | 6 kts | 197° |
| 2026-04-25 14:39 | 53.62881 | 10.00032 | 68 ft | 1 kts | 193° |
| 2026-04-25 14:40 | 53.62860 | 10.00015 | 68 ft | 8 kts | 226° |
| 2026-04-25 14:40 | 53.62842 | 9.99961 | 68 ft | 0 kts | 242° |
| 2026-04-25 14:40 | 53.62841 | 9.99960 | 68 ft | 2 kts | 242° |
| 2026-04-25 14:41 | 53.62819 | 9.99883 | 68 ft | 13 kts | 245° |
| 2026-04-25 14:41 | 53.62823 | 9.99775 | 68 ft | 4 kts | 335° |
| 2026-04-25 14:41 | 53.62827 | 9.99772 | 68 ft | 0 kts | 335° |
| 2026-04-25 14:42 | 53.62851 | 9.99753 | 68 ft | 19 kts | 334° |
| 2026-04-25 14:42 | 53.63029 | 9.99600 | 68 ft | 66 kts | 332° |
| 2026-04-25 14:42 | 53.63912 | 9.98840 | 74 ft | 146 kts | 331° |
| 2026-04-25 14:42 | 53.64942 | 9.97979 | 715 ft | 180 kts | 330° |
| 2026-04-25 14:43 | 53.66131 | 9.97053 | 1897 ft | 195 kts | 331° |
| 2026-04-25 14:43 | 53.67318 | 9.96116 | 3484 ft | 183 kts | 329° |
| 2026-04-25 14:43 | 53.68504 | 9.95208 | 4617 ft | 195 kts | 332° |
| 2026-04-25 14:43 | 53.69684 | 9.94117 | 4914 ft | 195 kts | 313° |
| 2026-04-25 14:44 | 53.70569 | 9.92125 | 5091 ft | 232 kts | 294° |
| 2026-04-25 14:44 | 53.70904 | 9.89477 | 6329 ft | 229 kts | 275° |
| 2026-04-25 14:44 | 53.70738 | 9.86753 | 7499 ft | 244 kts | 258° |
| 2026-04-25 14:44 | 53.70253 | 9.83997 | 8630 ft | 246 kts | 259° |
| 2026-04-25 14:45 | 53.69753 | 9.81187 | 9626 ft | 253 kts | 258° |
| 2026-04-25 14:45 | 53.69228 | 9.78361 | 10633 ft | 258 kts | 258° |
| 2026-04-25 14:45 | 53.68652 | 9.75322 | 10907 ft | 286 kts | 258° |
| 2026-04-25 14:45 | 53.68040 | 9.72149 | 11826 ft | 283 kts | 258° |
| 2026-04-25 14:46 | 53.67426 | 9.68991 | 12617 ft | 287 kts | 258° |
| 2026-04-25 14:46 | 53.66799 | 9.65771 | 13276 ft | 291 kts | 258° |
| 2026-04-25 14:46 | 53.66164 | 9.62531 | 13944 ft | 294 kts | 258° |
| 2026-04-25 14:46 | 53.65519 | 9.59254 | 14553 ft | 297 kts | 257° |
| 2026-04-25 14:47 | 53.64750 | 9.55984 | 15090 ft | 304 kts | 251° |
| 2026-04-25 14:47 | 53.64107 | 9.53864 | 15476 ft | 308 kts | 248° |
| 2026-04-25 14:47 | 53.62483 | 9.49816 | 16106 ft | 318 kts | 240° |
| 2026-04-25 14:47 | 53.61128 | 9.46857 | 16591 ft | 321 kts | 239° |
| 2026-04-25 14:48 | 53.59753 | 9.43890 | 17037 ft | 323 kts | 239° |
| 2026-04-25 14:48 | 53.58361 | 9.40908 | 17474 ft | 326 kts | 239° |
| 2026-04-25 14:48 | 53.56954 | 9.37911 | 17893 ft | 328 kts | 239° |
| 2026-04-25 14:48 | 53.55535 | 9.34899 | 18293 ft | 330 kts | 239° |
| 2026-04-25 14:49 | 53.54101 | 9.31866 | 18660 ft | 333 kts | 238° |
| 2026-04-25 14:49 | 53.52715 | 9.28753 | 19029 ft | 334 kts | 240° |
| 2026-04-25 14:49 | 53.51347 | 9.25598 | 19398 ft | 336 kts | 240° |
| 2026-04-25 14:49 | 53.49972 | 9.22422 | 19728 ft | 338 kts | 240° |
| 2026-04-25 14:50 | 53.48585 | 9.19222 | 20052 ft | 341 kts | 240° |
| 2026-04-25 14:50 | 53.47190 | 9.16007 | 20389 ft | 342 kts | 240° |
| 2026-04-25 14:50 | 53.45786 | 9.12773 | 20706 ft | 344 kts | 240° |
| 2026-04-25 14:50 | 53.44375 | 9.09526 | 21013 ft | 346 kts | 240° |
| 2026-04-25 14:51 | 53.42954 | 9.06258 | 21281 ft | 349 kts | 240° |
| 2026-04-25 14:51 | 53.41524 | 9.02973 | 21580 ft | 350 kts | 239° |
| 2026-04-25 14:51 | 53.40087 | 8.99679 | 21872 ft | 352 kts | 239° |
| 2026-04-25 14:51 | 53.38641 | 8.96367 | 22150 ft | 354 kts | 239° |
| 2026-04-25 14:52 | 53.37186 | 8.93038 | 22394 ft | 356 kts | 239° |
| 2026-04-25 14:52 | 53.35721 | 8.89690 | 22662 ft | 358 kts | 239° |
| 2026-04-25 14:52 | 53.34314 | 8.86273 | 22929 ft | 356 kts | 244° |
| 2026-04-25 14:52 | 53.33524 | 8.83864 | 23092 ft | 354 kts | 249° |
| 2026-04-25 14:53 | 53.32361 | 8.78772 | 23409 ft | 352 kts | 257° |
| 2026-04-25 14:53 | 53.31628 | 8.74861 | 23650 ft | 354 kts | 257° |
| 2026-04-25 14:53 | 53.30903 | 8.70929 | 23896 ft | 355 kts | 257° |
| 2026-04-25 14:53 | 53.30182 | 8.66981 | 24103 ft | 357 kts | 257° |
| 2026-04-25 14:54 | 53.29348 | 8.63060 | 24347 ft | 359 kts | 254° |
| 2026-04-25 14:54 | 53.28484 | 8.59142 | 24576 ft | 361 kts | 255° |
| 2026-04-25 14:54 | 53.27620 | 8.55213 | 24792 ft | 362 kts | 255° |
| 2026-04-25 14:54 | 53.26753 | 8.51268 | 25004 ft | 363 kts | 255° |
| 2026-04-25 14:55 | 53.25961 | 8.47275 | 25214 ft | 363 kts | 257° |
| 2026-04-25 14:55 | 53.25202 | 8.43258 | 25428 ft | 364 kts | 257° |
| 2026-04-25 14:55 | 53.24443 | 8.39231 | 25593 ft | 366 kts | 257° |
| 2026-04-25 14:55 | 53.23680 | 8.35183 | 25823 ft | 368 kts | 257° |
| 2026-04-25 14:56 | 53.22913 | 8.31123 | 26117 ft | 366 kts | 257° |
| 2026-04-25 14:56 | 53.22145 | 8.27053 | 26217 ft | 370 kts | 257° |
| 2026-04-25 14:56 | 53.21373 | 8.22974 | 26442 ft | 369 kts | 257° |
| 2026-04-25 14:56 | 53.20602 | 8.18914 | 26716 ft | 368 kts | 257° |
| 2026-04-25 14:57 | 53.19830 | 8.14844 | 26846 ft | 370 kts | 257° |
| 2026-04-25 14:57 | 53.19051 | 8.10757 | 27028 ft | 371 kts | 257° |
| 2026-04-25 14:57 | 53.18275 | 8.06665 | 27202 ft | 371 kts | 258° |
| 2026-04-25 14:57 | 53.17498 | 8.02560 | 27383 ft | 374 kts | 258° |
| 2026-04-25 14:58 | 53.16716 | 7.98422 | 27658 ft | 375 kts | 258° |
| 2026-04-25 14:58 | 53.15932 | 7.94272 | 27933 ft | 377 kts | 258° |
| 2026-04-25 14:58 | 53.15143 | 7.90103 | 28208 ft | 379 kts | 257° |
| 2026-04-25 14:58 | 53.14351 | 7.85920 | 28483 ft | 380 kts | 258° |
| 2026-04-25 14:59 | 53.13554 | 7.81718 | 28759 ft | 382 kts | 258° |
| 2026-04-25 14:59 | 53.12751 | 7.77495 | 29035 ft | 384 kts | 258° |
| 2026-04-25 14:59 | 53.11945 | 7.73260 | 29309 ft | 385 kts | 258° |
| 2026-04-25 14:59 | 53.11136 | 7.69018 | 29584 ft | 387 kts | 258° |
| 2026-04-25 15:00 | 53.10240 | 7.64784 | 29860 ft | 392 kts | 253° |
| 2026-04-25 15:00 | 53.09197 | 7.60593 | 30135 ft | 393 kts | 253° |
| 2026-04-25 15:00 | 53.08145 | 7.56395 | 30410 ft | 395 kts | 253° |
| 2026-04-25 15:00 | 53.07090 | 7.52178 | 30685 ft | 397 kts | 253° |
| 2026-04-25 15:01 | 53.06029 | 7.47940 | 30972 ft | 399 kts | 253° |
| 2026-04-25 15:01 | 53.04963 | 7.43684 | 31272 ft | 400 kts | 253° |
| 2026-04-25 15:01 | 53.03894 | 7.39417 | 31572 ft | 402 kts | 253° |
| 2026-04-25 15:01 | 53.02818 | 7.35127 | 31872 ft | 404 kts | 253° |
| 2026-04-25 15:02 | 53.01735 | 7.30818 | 32173 ft | 406 kts | 253° |
| 2026-04-25 15:02 | 53.00646 | 7.26494 | 32473 ft | 407 kts | 253° |
| 2026-04-25 15:02 | 52.99551 | 7.22155 | 32773 ft | 409 kts | 253° |
| 2026-04-25 15:02 | 52.98451 | 7.17803 | 33072 ft | 410 kts | 253° |
| 2026-04-25 15:03 | 52.97346 | 7.13442 | 33373 ft | 411 kts | 253° |
| 2026-04-25 15:03 | 52.96239 | 7.09079 | 33672 ft | 412 kts | 253° |
| 2026-04-25 15:03 | 52.95126 | 7.04705 | 33967 ft | 413 kts | 253° |
| 2026-04-25 15:03 | 52.94006 | 7.00308 | 34108 ft | 417 kts | 253° |
| 2026-04-25 15:04 | 52.91738 | 6.91439 | 34154 ft | 417 kts | 252° |
| 2026-04-25 15:04 | 52.89470 | 6.82606 | 34160 ft | 419 kts | 252° |
| 2026-04-25 15:05 | 52.87187 | 6.73754 | 34161 ft | 419 kts | 252° |
| 2026-04-25 15:06 | 52.83749 | 6.60488 | 34163 ft | 420 kts | 252° |
| 2026-04-25 15:06 | 52.81447 | 6.51648 | 34166 ft | 420 kts | 252° |
| 2026-04-25 15:07 | 52.79138 | 6.42819 | 34168 ft | 419 kts | 252° |
| 2026-04-25 15:07 | 52.76818 | 6.33982 | 34170 ft | 420 kts | 251° |
| 2026-04-25 15:08 | 52.74491 | 6.25157 | 34171 ft | 421 kts | 251° |
| 2026-04-25 15:08 | 52.72155 | 6.16329 | 34177 ft | 421 kts | 251° |
| 2026-04-25 15:09 | 52.69814 | 6.07516 | 34187 ft | 421 kts | 251° |
| 2026-04-25 15:09 | 52.66284 | 5.94293 | 34192 ft | 422 kts | 251° |
| 2026-04-25 15:10 | 52.63920 | 5.85485 | 34193 ft | 421 kts | 250° |
| 2026-04-25 15:11 | 52.60364 | 5.72296 | 34196 ft | 421 kts | 250° |
| 2026-04-25 15:11 | 52.57983 | 5.63505 | 34197 ft | 421 kts | 250° |
| 2026-04-25 15:12 | 52.54402 | 5.50350 | 34198 ft | 422 kts | 250° |
| 2026-04-25 15:12 | 52.52802 | 5.44496 | 34199 ft | 422 kts | 250° |
| 2026-04-25 15:13 | 52.48394 | 5.28446 | 34199 ft | 421 kts | 250° |
| 2026-04-25 15:14 | 52.45981 | 5.19707 | 34199 ft | 421 kts | 250° |
| 2026-04-25 15:14 | 52.43604 | 5.11132 | 34198 ft | 421 kts | 250° |
| 2026-04-25 15:15 | 52.41584 | 5.03870 | 34197 ft | 421 kts | 250° |
| 2026-04-25 15:15 | 52.38735 | 4.93654 | 34199 ft | 429 kts | 249° |
| 2026-04-25 15:16 | 52.36252 | 4.84794 | 34199 ft | 428 kts | 249° |
| 2026-04-25 15:16 | 52.32527 | 4.71570 | 34199 ft | 428 kts | 248° |
| 2026-04-25 15:17 | 52.28790 | 4.58377 | 34200 ft | 427 kts | 248° |
| 2026-04-25 15:18 | 52.26290 | 4.49595 | 34200 ft | 427 kts | 248° |
| 2026-04-25 15:18 | 52.22538 | 4.36474 | 34202 ft | 426 kts | 248° |
| 2026-04-25 15:19 | 52.20445 | 4.29184 | 34205 ft | 426 kts | 248° |
| 2026-04-25 15:19 | 52.17513 | 4.19014 | 34208 ft | 426 kts | 248° |
| 2026-04-25 15:20 | 52.14995 | 4.10312 | 34210 ft | 426 kts | 248° |
| 2026-04-25 15:20 | 52.12474 | 4.01634 | 34213 ft | 425 kts | 247° |
| 2026-04-25 15:21 | 52.09942 | 3.92946 | 34217 ft | 425 kts | 247° |
| 2026-04-25 15:21 | 52.07393 | 3.84296 | 34219 ft | 426 kts | 244° |
| 2026-04-25 15:22 | 52.03882 | 3.76499 | 34226 ft | 431 kts | 233° |
| 2026-04-25 15:22 | 52.00063 | 3.69024 | 34227 ft | 431 kts | 233° |
| 2026-04-25 15:23 | 51.96245 | 3.61570 | 34229 ft | 430 kts | 233° |
| 2026-04-25 15:23 | 51.92428 | 3.54135 | 34229 ft | 430 kts | 233° |
| 2026-04-25 15:24 | 51.88614 | 3.46726 | 34228 ft | 429 kts | 233° |
| 2026-04-25 15:24 | 51.85435 | 3.40564 | 34228 ft | 429 kts | 233° |
| 2026-04-25 15:25 | 51.80983 | 3.31960 | 34228 ft | 428 kts | 232° |
| 2026-04-25 15:25 | 51.77172 | 3.24613 | 34226 ft | 427 kts | 233° |
| 2026-04-25 15:26 | 51.74140 | 3.16507 | 34226 ft | 422 kts | 250° |
| 2026-04-25 15:26 | 51.73220 | 3.12034 | 33781 ft | 422 kts | 257° |
| 2026-04-25 15:26 | 51.72679 | 3.07310 | 32669 ft | 436 kts | 262° |
| 2026-04-25 15:27 | 51.72220 | 3.02464 | 32127 ft | 436 kts | 262° |
| 2026-04-25 15:27 | 51.71776 | 2.97688 | 31849 ft | 429 kts | 262° |
| 2026-04-25 15:27 | 51.70899 | 2.88200 | 30918 ft | 426 kts | 262° |
| 2026-04-25 15:28 | 51.70469 | 2.83508 | 30532 ft | 422 kts | 262° |
| 2026-04-25 15:28 | 51.70043 | 2.78824 | 30016 ft | 422 kts | 263° |
| 2026-04-25 15:28 | 51.69621 | 2.74184 | 29607 ft | 419 kts | 263° |
| 2026-04-25 15:28 | 51.69203 | 2.69558 | 29177 ft | 416 kts | 263° |
| 2026-04-25 15:29 | 51.68787 | 2.65035 | 28354 ft | 406 kts | 262° |
| 2026-04-25 15:29 | 51.68374 | 2.60595 | 27688 ft | 395 kts | 262° |
| 2026-04-25 15:29 | 51.67972 | 2.56267 | 27258 ft | 390 kts | 262° |
| 2026-04-25 15:29 | 51.67575 | 2.51954 | 26821 ft | 390 kts | 262° |
| 2026-04-25 15:30 | 51.67174 | 2.47650 | 26387 ft | 389 kts | 262° |
| 2026-04-25 15:30 | 51.66777 | 2.43367 | 25954 ft | 387 kts | 262° |
| 2026-04-25 15:30 | 51.66382 | 2.39091 | 25522 ft | 386 kts | 262° |
| 2026-04-25 15:30 | 51.65988 | 2.34821 | 25092 ft | 385 kts | 262° |
| 2026-04-25 15:31 | 51.65596 | 2.30575 | 24666 ft | 384 kts | 262° |
| 2026-04-25 15:31 | 51.65205 | 2.26338 | 24241 ft | 382 kts | 262° |
| 2026-04-25 15:31 | 51.64815 | 2.22127 | 23820 ft | 381 kts | 262° |
| 2026-04-25 15:31 | 51.64425 | 2.17923 | 23400 ft | 380 kts | 262° |
| 2026-04-25 15:32 | 51.64035 | 2.13734 | 22983 ft | 379 kts | 262° |
| 2026-04-25 15:32 | 51.63641 | 2.09556 | 22569 ft | 378 kts | 262° |
| 2026-04-25 15:32 | 51.63250 | 2.05387 | 22156 ft | 377 kts | 262° |
| 2026-04-25 15:33 | 51.62474 | 1.97085 | 21357 ft | 375 kts | 262° |
| 2026-04-25 15:33 | 51.62086 | 1.92955 | 21018 ft | 373 kts | 262° |
| 2026-04-25 15:33 | 51.61662 | 1.88850 | 20650 ft | 371 kts | 258° |
| 2026-04-25 15:33 | 51.60853 | 1.84924 | 20255 ft | 372 kts | 247° |
| 2026-04-25 15:34 | 51.59571 | 1.81328 | 19929 ft | 371 kts | 236° |
| 2026-04-25 15:34 | 51.57935 | 1.78138 | 19604 ft | 370 kts | 231° |
| 2026-04-25 15:34 | 51.56278 | 1.74983 | 19214 ft | 369 kts | 232° |
| 2026-04-25 15:34 | 51.55176 | 1.72899 | 19012 ft | 367 kts | 231° |
| 2026-04-25 15:35 | 51.51345 | 1.65757 | 17797 ft | 355 kts | 232° |
| 2026-04-25 15:35 | 51.49902 | 1.62663 | 17313 ft | 341 kts | 238° |
| 2026-04-25 15:35 | 51.48728 | 1.59413 | 16612 ft | 335 kts | 245° |
| 2026-04-25 15:36 | 51.47034 | 1.52756 | 15808 ft | 311 kts | 251° |
| 2026-04-25 15:36 | 51.46266 | 1.49528 | 15479 ft | 313 kts | 251° |
| 2026-04-25 15:36 | 51.45499 | 1.46267 | 15139 ft | 314 kts | 251° |
| 2026-04-25 15:37 | 51.44732 | 1.42988 | 14799 ft | 315 kts | 251° |
| 2026-04-25 15:37 | 51.43766 | 1.39821 | 14452 ft | 319 kts | 240° |
| 2026-04-25 15:37 | 51.42420 | 1.36991 | 14226 ft | 323 kts | 229° |
| 2026-04-25 15:37 | 51.40720 | 1.34612 | 13888 ft | 327 kts | 220° |
| 2026-04-25 15:38 | 51.38937 | 1.32390 | 13664 ft | 324 kts | 220° |
| 2026-04-25 15:38 | 51.37159 | 1.30201 | 13455 ft | 323 kts | 220° |
| 2026-04-25 15:38 | 51.35381 | 1.28039 | 13248 ft | 322 kts | 219° |
| 2026-04-25 15:38 | 51.33591 | 1.25885 | 13038 ft | 321 kts | 219° |
| 2026-04-25 15:39 | 51.31807 | 1.23751 | 12831 ft | 321 kts | 219° |
| 2026-04-25 15:39 | 51.30021 | 1.21625 | 12626 ft | 320 kts | 219° |
| 2026-04-25 15:39 | 51.28239 | 1.19513 | 12414 ft | 319 kts | 219° |
| 2026-04-25 15:39 | 51.26468 | 1.17418 | 12212 ft | 317 kts | 219° |
| 2026-04-25 15:40 | 51.24696 | 1.15327 | 12009 ft | 317 kts | 219° |
| 2026-04-25 15:40 | 51.24105 | 1.14630 | 11941 ft | 317 kts | 219° |
| 2026-04-25 15:40 | 51.21162 | 1.11166 | 11602 ft | 316 kts | 218° |
| 2026-04-25 15:40 | 51.19398 | 1.09093 | 11396 ft | 315 kts | 218° |
| 2026-04-25 15:41 | 51.17639 | 1.07029 | 11195 ft | 314 kts | 218° |
| 2026-04-25 15:41 | 51.15906 | 1.04997 | 11108 ft | 306 kts | 218° |
| 2026-04-25 15:41 | 51.14220 | 1.03025 | 11029 ft | 297 kts | 218° |
| 2026-04-25 15:41 | 51.12573 | 1.01099 | 10781 ft | 295 kts | 218° |
| 2026-04-25 15:42 | 51.10929 | 0.99178 | 10531 ft | 292 kts | 218° |
| 2026-04-25 15:42 | 51.09292 | 0.97266 | 10242 ft | 291 kts | 218° |
| 2026-04-25 15:42 | 51.07680 | 0.95366 | 10046 ft | 287 kts | 220° |
| 2026-04-25 15:42 | 51.06258 | 0.93176 | 9863 ft | 285 kts | 231° |
| 2026-04-25 15:43 | 51.05147 | 0.90592 | 9675 ft | 284 kts | 243° |
| 2026-04-25 15:43 | 51.04250 | 0.87809 | 9489 ft | 283 kts | 244° |
| 2026-04-25 15:43 | 51.03376 | 0.85017 | 9306 ft | 283 kts | 245° |
| 2026-04-25 15:43 | 51.02515 | 0.82220 | 9124 ft | 283 kts | 245° |
| 2026-04-25 15:44 | 51.01662 | 0.79417 | 8942 ft | 282 kts | 245° |
| 2026-04-25 15:44 | 51.00814 | 0.76617 | 8764 ft | 282 kts | 245° |
| 2026-04-25 15:44 | 50.99972 | 0.73822 | 8578 ft | 280 kts | 245° |
| 2026-04-25 15:44 | 50.99136 | 0.71045 | 8396 ft | 278 kts | 245° |
| 2026-04-25 15:45 | 50.98302 | 0.68279 | 8218 ft | 279 kts | 245° |
| 2026-04-25 15:45 | 50.97467 | 0.65518 | 8040 ft | 278 kts | 245° |
| 2026-04-25 15:45 | 50.96633 | 0.62754 | 7859 ft | 277 kts | 245° |
| 2026-04-25 15:45 | 50.96080 | 0.60920 | 7740 ft | 277 kts | 245° |
| 2026-04-25 15:46 | 50.94978 | 0.57266 | 7502 ft | 275 kts | 245° |
| 2026-04-25 15:46 | 50.94154 | 0.54536 | 7332 ft | 275 kts | 245° |
| 2026-04-25 15:46 | 50.93331 | 0.51812 | 7149 ft | 274 kts | 245° |
| 2026-04-25 15:46 | 50.92513 | 0.49103 | 6981 ft | 273 kts | 245° |
| 2026-04-25 15:47 | 50.91841 | 0.46300 | 6797 ft | 272 kts | 258° |
| 2026-04-25 15:47 | 50.91726 | 0.43324 | 6507 ft | 272 kts | 277° |
| 2026-04-25 15:47 | 50.92124 | 0.40428 | 6295 ft | 267 kts | 284° |
| 2026-04-25 15:47 | 50.92583 | 0.37576 | 6140 ft | 269 kts | 285° |
| 2026-04-25 15:48 | 50.93063 | 0.34738 | 6036 ft | 267 kts | 285° |
| 2026-04-25 15:48 | 50.93579 | 0.31915 | 6003 ft | 267 kts | 294° |
| 2026-04-25 15:48 | 50.94667 | 0.29567 | 6006 ft | 267 kts | 317° |
| 2026-04-25 15:48 | 50.96076 | 0.27660 | 6003 ft | 267 kts | 321° |
| 2026-04-25 15:49 | 50.97519 | 0.25811 | 6000 ft | 267 kts | 321° |
| 2026-04-25 15:49 | 50.98964 | 0.23968 | 6001 ft | 267 kts | 321° |
| 2026-04-25 15:49 | 51.00279 | 0.21918 | 5991 ft | 267 kts | 303° |
| 2026-04-25 15:49 | 51.00885 | 0.19164 | 6000 ft | 268 kts | 277° |
| 2026-04-25 15:50 | 51.00968 | 0.17201 | 6004 ft | 268 kts | 272° |
| 2026-04-25 15:50 | 51.01015 | 0.13328 | 6002 ft | 268 kts | 271° |
| 2026-04-25 15:50 | 51.01039 | 0.10372 | 5990 ft | 268 kts | 271° |
| 2026-04-25 15:50 | 51.01061 | 0.07417 | 5983 ft | 268 kts | 271° |
| 2026-04-25 15:51 | 51.01083 | 0.04465 | 5982 ft | 268 kts | 271° |
| 2026-04-25 15:51 | 51.01097 | 0.02495 | 5982 ft | 268 kts | 271° |
| 2026-04-25 15:51 | 51.01126 | -0.01440 | 5984 ft | 267 kts | 271° |
| 2026-04-25 15:51 | 51.01143 | -0.04385 | 5984 ft | 267 kts | 271° |
| 2026-04-25 15:52 | 51.01160 | -0.07334 | 5984 ft | 267 kts | 271° |
| 2026-04-25 15:52 | 51.01175 | -0.10281 | 5987 ft | 268 kts | 271° |
| 2026-04-25 15:52 | 51.01191 | -0.13231 | 5984 ft | 267 kts | 271° |
| 2026-04-25 15:52 | 51.01206 | -0.16172 | 5980 ft | 267 kts | 271° |
| 2026-04-25 15:53 | 51.01221 | -0.19117 | 5981 ft | 267 kts | 271° |
| 2026-04-25 15:53 | 51.01236 | -0.22056 | 5979 ft | 263 kts | 271° |
| 2026-04-25 15:53 | 51.01248 | -0.24876 | 5975 ft | 248 kts | 271° |
| 2026-04-25 15:53 | 51.01260 | -0.27601 | 5559 ft | 252 kts | 271° |
| 2026-04-25 15:54 | 51.01274 | -0.30466 | 4902 ft | 265 kts | 271° |
| 2026-04-25 15:54 | 51.01292 | -0.33371 | 4608 ft | 262 kts | 271° |
| 2026-04-25 15:54 | 51.01312 | -0.36256 | 4255 ft | 262 kts | 271° |
| 2026-04-25 15:54 | 51.01333 | -0.39130 | 3916 ft | 260 kts | 271° |
| 2026-04-25 15:55 | 51.01356 | -0.41994 | 3572 ft | 260 kts | 271° |
| 2026-04-25 15:55 | 51.01382 | -0.44849 | 3254 ft | 259 kts | 271° |
| 2026-04-25 15:55 | 51.01791 | -0.47577 | 3050 ft | 256 kts | 299° |
| 2026-04-25 15:55 | 51.02994 | -0.49600 | 2998 ft | 252 kts | 329° |
| 2026-04-25 15:56 | 51.04585 | -0.50462 | 2989 ft | 236 kts | 349° |
| 2026-04-25 15:56 | 51.06153 | -0.50896 | 2980 ft | 223 kts | 351° |
| 2026-04-25 15:56 | 51.07642 | -0.51231 | 2967 ft | 210 kts | 1° |
| 2026-04-25 15:56 | 51.08959 | -0.50558 | 2967 ft | 195 kts | 33° |
| 2026-04-25 15:57 | 51.10000 | -0.49345 | 2964 ft | 189 kts | 49° |
| 2026-04-25 15:57 | 51.10674 | -0.47530 | 2981 ft | 188 kts | 68° |
| 2026-04-25 15:57 | 51.11090 | -0.45565 | 2980 ft | 188 kts | 74° |
| 2026-04-25 15:57 | 51.11410 | -0.43593 | 2997 ft | 177 kts | 76° |
| 2026-04-25 15:58 | 51.11684 | -0.41727 | 2833 ft | 172 kts | 77° |
| 2026-04-25 15:58 | 51.11942 | -0.39885 | 2612 ft | 171 kts | 77° |
| 2026-04-25 15:58 | 51.12196 | -0.38051 | 2399 ft | 168 kts | 77° |
| 2026-04-25 15:58 | 51.12443 | -0.36261 | 2165 ft | 164 kts | 77° |
| 2026-04-25 15:59 | 51.12684 | -0.34507 | 1939 ft | 162 kts | 77° |
| 2026-04-25 15:59 | 51.12918 | -0.32800 | 1726 ft | 156 kts | 77° |
| 2026-04-25 15:59 | 51.13148 | -0.31125 | 1521 ft | 153 kts | 77° |
| 2026-04-25 15:59 | 51.13369 | -0.29516 | 1311 ft | 145 kts | 77° |
| 2026-04-25 16:00 | 51.13578 | -0.27988 | 1123 ft | 140 kts | 77° |
| 2026-04-25 16:00 | 51.13647 | -0.27488 | 1066 ft | 139 kts | 77° |
| 2026-04-25 16:00 | 51.13996 | -0.24977 | 781 ft | 140 kts | 77° |
| 2026-04-25 16:00 | 51.14210 | -0.23474 | 588 ft | 140 kts | 77° |
| 2026-04-25 16:01 | 51.14408 | -0.21969 | 389 ft | 138 kts | 78° |
| 2026-04-25 16:01 | 51.14609 | -0.20479 | 236 ft | 137 kts | 78° |
| 2026-04-25 16:01 | 51.14784 | -0.19202 | 211 ft | 85 kts | 78° |
| 2026-04-25 16:01 | 51.14898 | -0.18565 | 211 ft | 36 kts | 41° |
| 2026-04-25 16:02 | 51.15030 | -0.18327 | 211 ft | 17 kts | 49° |
| 2026-04-25 16:02 | 51.15037 | -0.18313 | 211 ft | 0 kts | 49° |
| 2026-04-25 16:02 | 51.15044 | -0.18300 | 211 ft | 5 kts | 49° |
| 2026-04-25 16:03 | 51.15086 | -0.18222 | 211 ft | 13 kts | 45° |
| 2026-04-25 16:03 | 51.15158 | -0.18196 | 211 ft | 0 kts | 342° |
| 2026-04-25 16:03 | 51.15168 | -0.18201 | 211 ft | 1 kts | 342° |
| 2026-04-25 16:03 | 51.15171 | -0.18202 | 211 ft | 3 kts | 350° |
| 2026-04-25 16:04 | 51.15197 | -0.18156 | 211 ft | 11 kts | 82° |
| 2026-04-25 16:04 | 51.15279 | -0.18117 | 211 ft | 19 kts | 346° |
| 2026-04-25 16:04 | 51.15418 | -0.18164 | 211 ft | 20 kts | 358° |
| 2026-04-25 16:04 | 51.15464 | -0.17986 | 211 ft | 20 kts | 76° |
| 2026-04-25 16:05 | 51.15496 | -0.17758 | 211 ft | 22 kts | 77° |
| 2026-04-25 16:05 | 51.15528 | -0.17518 | 211 ft | 21 kts | 78° |
| 2026-04-25 16:05 | 51.15756 | -0.17460 | 211 ft | 18 kts | 68° |
| 2026-04-25 16:06 | 51.15827 | -0.17430 | 211 ft | 10 kts | 347° |
| 2026-04-25 16:06 | 51.15846 | -0.17437 | 211 ft | 0 kts | 346° |
| 2026-04-25 16:06 | 51.15846 | -0.17438 | 211 ft | 0 kts | 346° |